sensor_id;sensor_type;location;lat;lon;timestamp;temperature;humidity
71214;DHT22;58958;43.696;4.282;2023-09-12T00:02:04;21.90;76.10
71214;DHT22;58958;43.696;4.282;2023-09-12T00:04:30;21.80;75.80
71214;DHT22;58958;43.696;4.282;2023-09-12T00:06:56;21.70;76.20
71214;DHT22;58958;43.696;4.282;2023-09-12T00:09:22;21.70;75.90
71214;DHT22;58958;43.696;4.282;2023-09-12T00:11:48;21.70;76.20
71214;DHT22;58958;43.696;4.282;2023-09-12T00:14:17;21.60;76.20
71214;DHT22;58958;43.696;4.282;2023-09-12T00:16:43;21.70;76.20
71214;DHT22;58958;43.696;4.282;2023-09-12T00:19:09;21.70;76.60
71214;DHT22;58958;43.696;4.282;2023-09-12T00:21:34;21.60;77.60
71214;DHT22;58958;43.696;4.282;2023-09-12T00:24:00;21.60;77.80
71214;DHT22;58958;43.696;4.282;2023-09-12T00:26:26;21.60;77.10
71214;DHT22;58958;43.696;4.282;2023-09-12T00:28:52;21.60;76.70
71214;DHT22;58958;43.696;4.282;2023-09-12T00:31:17;21.70;76.60
71214;DHT22;58958;43.696;4.282;2023-09-12T00:33:43;21.70;76.60
71214;DHT22;58958;43.696;4.282;2023-09-12T00:36:09;21.70;77.00
71214;DHT22;58958;43.696;4.282;2023-09-12T00:38:34;21.80;76.70
71214;DHT22;58958;43.696;4.282;2023-09-12T00:41:00;21.80;77.00
71214;DHT22;58958;43.696;4.282;2023-09-12T00:43:26;21.90;77.00
71214;DHT22;58958;43.696;4.282;2023-09-12T00:45:51;21.90;77.00
71214;DHT22;58958;43.696;4.282;2023-09-12T00:48:18;21.90;76.90
71214;DHT22;58958;43.696;4.282;2023-09-12T00:50:47;21.90;76.90
71214;DHT22;58958;43.696;4.282;2023-09-12T00:53:15;21.80;76.70
71214;DHT22;58958;43.696;4.282;2023-09-12T00:55:46;21.80;76.70
71214;DHT22;58958;43.696;4.282;2023-09-12T00:58:14;21.90;76.70
71214;DHT22;58958;43.696;4.282;2023-09-12T01:00:41;21.90;76.60
71214;DHT22;58958;43.696;4.282;2023-09-12T01:03:07;21.90;76.70
71214;DHT22;58958;43.696;4.282;2023-09-12T01:05:33;22.00;76.40
71214;DHT22;58958;43.696;4.282;2023-09-12T01:08:00;22.00;76.40
71214;DHT22;58958;43.696;4.282;2023-09-12T01:10:26;22.00;76.40
71214;DHT22;58958;43.696;4.282;2023-09-12T01:12:52;21.90;76.70
71214;DHT22;58958;43.696;4.282;2023-09-12T01:15:18;21.90;76.70
71214;DHT22;58958;43.696;4.282;2023-09-12T01:17:45;21.90;76.70
71214;DHT22;58958;43.696;4.282;2023-09-12T01:20:14;21.90;76.30
71214;DHT22;58958;43.696;4.282;2023-09-12T01:28:09;21.90;76.50
71214;DHT22;58958;43.696;4.282;2023-09-12T01:30:35;22.00;76.30
71214;DHT22;58958;43.696;4.282;2023-09-12T01:33:02;21.90;76.50
71214;DHT22;58958;43.696;4.282;2023-09-12T01:35:28;21.90;76.50
71214;DHT22;58958;43.696;4.282;2023-09-12T01:37:54;21.90;76.60
71214;DHT22;58958;43.696;4.282;2023-09-12T01:40:27;21.90;77.00
71214;DHT22;58958;43.696;4.282;2023-09-12T01:43:00;21.90;77.10
71214;DHT22;58958;43.696;4.282;2023-09-12T01:45:27;21.90;76.80
71214;DHT22;58958;43.696;4.282;2023-09-12T01:47:53;21.90;76.80
71214;DHT22;58958;43.696;4.282;2023-09-12T01:50:20;21.90;76.60
71214;DHT22;58958;43.696;4.282;2023-09-12T01:52:46;22.00;76.60
71214;DHT22;58958;43.696;4.282;2023-09-12T01:55:12;22.00;76.50
71214;DHT22;58958;43.696;4.282;2023-09-12T01:57:40;21.90;77.70
71214;DHT22;58958;43.696;4.282;2023-09-12T02:00:07;21.90;77.70
71214;DHT22;58958;43.696;4.282;2023-09-12T02:02:32;22.00;77.10
71214;DHT22;58958;43.696;4.282;2023-09-12T02:05:11;22.00;77.20
71214;DHT22;58958;43.696;4.282;2023-09-12T02:07:40;22.00;77.10
71214;DHT22;58958;43.696;4.282;2023-09-12T02:10:07;22.10;77.30
71214;DHT22;58958;43.696;4.282;2023-09-12T02:12:32;22.10;77.10
71214;DHT22;58958;43.696;4.282;2023-09-12T02:14:58;22.10;77.10
71214;DHT22;58958;43.696;4.282;2023-09-12T02:17:24;22.10;77.10
71214;DHT22;58958;43.696;4.282;2023-09-12T02:19:50;22.10;77.10
71214;DHT22;58958;43.696;4.282;2023-09-12T02:22:15;22.10;77.00
71214;DHT22;58958;43.696;4.282;2023-09-12T02:24:41;22.10;77.00
71214;DHT22;58958;43.696;4.282;2023-09-12T02:27:08;22.10;77.10
71214;DHT22;58958;43.696;4.282;2023-09-12T02:29:34;22.00;77.30
71214;DHT22;58958;43.696;4.282;2023-09-12T02:32:00;21.90;77.60
71214;DHT22;58958;43.696;4.282;2023-09-12T02:34:26;21.80;77.40
71214;DHT22;58958;43.696;4.282;2023-09-12T02:36:51;21.80;77.60
71214;DHT22;58958;43.696;4.282;2023-09-12T02:39:17;21.80;77.70
71214;DHT22;58958;43.696;4.282;2023-09-12T02:41:43;21.70;78.10
71214;DHT22;58958;43.696;4.282;2023-09-12T02:44:08;21.70;78.10
71214;DHT22;58958;43.696;4.282;2023-09-12T02:46:34;21.70;77.80
71214;DHT22;58958;43.696;4.282;2023-09-12T02:49:00;21.70;77.80
71214;DHT22;58958;43.696;4.282;2023-09-12T02:51:26;21.70;77.50
71214;DHT22;58958;43.696;4.282;2023-09-12T02:53:51;21.80;77.40
71214;DHT22;58958;43.696;4.282;2023-09-12T02:56:17;21.80;77.10
71214;DHT22;58958;43.696;4.282;2023-09-12T02:58:46;21.70;77.20
71214;DHT22;58958;43.696;4.282;2023-09-12T03:01:19;21.70;77.50
71214;DHT22;58958;43.696;4.282;2023-09-12T03:03:49;21.70;77.60
71214;DHT22;58958;43.696;4.282;2023-09-12T03:06:15;21.40;78.80
71214;DHT22;58958;43.696;4.282;2023-09-12T03:08:42;21.40;78.40
71214;DHT22;58958;43.696;4.282;2023-09-12T03:11:09;21.40;78.40
71214;DHT22;58958;43.696;4.282;2023-09-12T03:13:36;21.40;78.70
71214;DHT22;58958;43.696;4.282;2023-09-12T03:16:02;21.40;79.00
71214;DHT22;58958;43.696;4.282;2023-09-12T03:18:29;21.20;79.40
71214;DHT22;58958;43.696;4.282;2023-09-12T03:20:54;21.30;79.10
71214;DHT22;58958;43.696;4.282;2023-09-12T03:23:20;21.30;80.20
71214;DHT22;58958;43.696;4.282;2023-09-12T03:25:46;21.30;79.70
71214;DHT22;58958;43.696;4.282;2023-09-12T03:28:12;21.30;79.40
71214;DHT22;58958;43.696;4.282;2023-09-12T03:30:38;21.40;79.30
71214;DHT22;58958;43.696;4.282;2023-09-12T03:33:04;21.40;79.30
71214;DHT22;58958;43.696;4.282;2023-09-12T03:35:32;21.40;79.10
71214;DHT22;58958;43.696;4.282;2023-09-12T03:37:58;21.40;79.10
71214;DHT22;58958;43.696;4.282;2023-09-12T03:40:23;21.40;79.20
71214;DHT22;58958;43.696;4.282;2023-09-12T03:42:49;21.30;79.40
71214;DHT22;58958;43.696;4.282;2023-09-12T03:45:15;21.30;79.50
71214;DHT22;58958;43.696;4.282;2023-09-12T03:47:40;21.30;79.40
71214;DHT22;58958;43.696;4.282;2023-09-12T03:50:06;21.30;79.50
71214;DHT22;58958;43.696;4.282;2023-09-12T03:52:32;21.30;79.30
71214;DHT22;58958;43.696;4.282;2023-09-12T03:54:58;21.30;79.30
71214;DHT22;58958;43.696;4.282;2023-09-12T03:57:26;21.20;80.80
71214;DHT22;58958;43.696;4.282;2023-09-12T03:59:52;21.20;80.00
71214;DHT22;58958;43.696;4.282;2023-09-12T04:02:18;21.20;79.90
71214;DHT22;58958;43.696;4.282;2023-09-12T04:04:44;21.20;79.60
71214;DHT22;58958;43.696;4.282;2023-09-12T04:07:09;21.20;79.60
71214;DHT22;58958;43.696;4.282;2023-09-12T04:09:35;21.20;79.40
71214;DHT22;58958;43.696;4.282;2023-09-12T04:12:01;21.20;79.60
71214;DHT22;58958;43.696;4.282;2023-09-12T04:14:27;21.20;79.50
71214;DHT22;58958;43.696;4.282;2023-09-12T04:16:52;21.20;79.60
71214;DHT22;58958;43.696;4.282;2023-09-12T04:19:18;21.20;80.90
71214;DHT22;58958;43.696;4.282;2023-09-12T04:21:43;21.10;80.70
71214;DHT22;58958;43.696;4.282;2023-09-12T04:24:09;21.10;81.00
71214;DHT22;58958;43.696;4.282;2023-09-12T04:26:35;21.10;81.20
71214;DHT22;58958;43.696;4.282;2023-09-12T04:29:00;21.10;80.90
71214;DHT22;58958;43.696;4.282;2023-09-12T04:31:26;21.10;81.40
71214;DHT22;58958;43.696;4.282;2023-09-12T04:33:52;21.10;82.00
71214;DHT22;58958;43.696;4.282;2023-09-12T04:36:18;21.10;81.90
71214;DHT22;58958;43.696;4.282;2023-09-12T04:38:44;21.10;83.00
71214;DHT22;58958;43.696;4.282;2023-09-12T04:41:12;21.10;83.40
71214;DHT22;58958;43.696;4.282;2023-09-12T04:43:40;21.00;84.90
71214;DHT22;58958;43.696;4.282;2023-09-12T04:46:06;21.00;84.30
71214;DHT22;58958;43.696;4.282;2023-09-12T04:48:32;21.00;83.80
71214;DHT22;58958;43.696;4.282;2023-09-12T04:50:57;21.10;82.80
71214;DHT22;58958;43.696;4.282;2023-09-12T04:53:23;21.20;82.60
71214;DHT22;58958;43.696;4.282;2023-09-12T04:55:51;21.20;82.20
71214;DHT22;58958;43.696;4.282;2023-09-12T04:58:17;21.20;82.30
71214;DHT22;58958;43.696;4.282;2023-09-12T05:00:42;21.10;82.60
71214;DHT22;58958;43.696;4.282;2023-09-12T05:03:08;21.10;82.60
71214;DHT22;58958;43.696;4.282;2023-09-12T05:05:34;21.00;82.50
71214;DHT22;58958;43.696;4.282;2023-09-12T05:08:01;21.00;82.50
71214;DHT22;58958;43.696;4.282;2023-09-12T05:10:27;20.90;82.00
71214;DHT22;58958;43.696;4.282;2023-09-12T05:12:53;20.80;82.20
71214;DHT22;58958;43.696;4.282;2023-09-12T05:15:19;20.80;81.90
71214;DHT22;58958;43.696;4.282;2023-09-12T05:17:44;20.90;81.40
71214;DHT22;58958;43.696;4.282;2023-09-12T05:20:10;21.00;80.80
71214;DHT22;58958;43.696;4.282;2023-09-12T05:22:36;21.00;80.20
71214;DHT22;58958;43.696;4.282;2023-09-12T05:25:01;21.00;80.40
71214;DHT22;58958;43.696;4.282;2023-09-12T05:27:27;21.00;80.20
71214;DHT22;58958;43.696;4.282;2023-09-12T05:29:53;21.00;79.60
71214;DHT22;58958;43.696;4.282;2023-09-12T05:32:18;21.00;79.50
71214;DHT22;58958;43.696;4.282;2023-09-12T05:34:44;21.00;79.00
71214;DHT22;58958;43.696;4.282;2023-09-12T05:37:11;21.00;79.00
71214;DHT22;58958;43.696;4.282;2023-09-12T05:39:36;20.90;79.30
71214;DHT22;58958;43.696;4.282;2023-09-12T05:42:02;20.90;78.90
71214;DHT22;58958;43.696;4.282;2023-09-12T05:44:28;20.90;78.90
71214;DHT22;58958;43.696;4.282;2023-09-12T05:46:53;20.80;79.20
71214;DHT22;58958;43.696;4.282;2023-09-12T05:49:19;20.80;79.30
71214;DHT22;58958;43.696;4.282;2023-09-12T05:51:45;20.70;79.40
71214;DHT22;58958;43.696;4.282;2023-09-12T05:54:11;20.80;79.40
71214;DHT22;58958;43.696;4.282;2023-09-12T05:56:39;20.80;79.50
71214;DHT22;58958;43.696;4.282;2023-09-12T05:59:06;20.80;79.50
71214;DHT22;58958;43.696;4.282;2023-09-12T06:01:32;20.80;79.60
71214;DHT22;58958;43.696;4.282;2023-09-12T06:03:57;20.80;79.70
71214;DHT22;58958;43.696;4.282;2023-09-12T06:06:23;20.80;79.80
71214;DHT22;58958;43.696;4.282;2023-09-12T06:08:49;20.90;79.80
71214;DHT22;58958;43.696;4.282;2023-09-12T06:11:14;20.90;79.80
71214;DHT22;58958;43.696;4.282;2023-09-12T06:13:40;21.00;79.40
71214;DHT22;58958;43.696;4.282;2023-09-12T06:16:06;21.00;79.20
71214;DHT22;58958;43.696;4.282;2023-09-12T06:18:33;21.00;79.30
71214;DHT22;58958;43.696;4.282;2023-09-12T06:21:00;21.00;79.50
71214;DHT22;58958;43.696;4.282;2023-09-12T06:23:30;21.00;79.70
71214;DHT22;58958;43.696;4.282;2023-09-12T06:25:56;21.10;79.40
71214;DHT22;58958;43.696;4.282;2023-09-12T06:28:26;21.10;79.60
71214;DHT22;58958;43.696;4.282;2023-09-12T06:30:52;21.20;79.30
71214;DHT22;58958;43.696;4.282;2023-09-12T06:33:18;21.30;79.00
71214;DHT22;58958;43.696;4.282;2023-09-12T06:35:43;21.30;79.00
71214;DHT22;58958;43.696;4.282;2023-09-12T06:38:12;21.50;78.20
71214;DHT22;58958;43.696;4.282;2023-09-12T06:40:38;21.60;77.90
71214;DHT22;58958;43.696;4.282;2023-09-12T06:43:03;21.70;77.40
71214;DHT22;58958;43.696;4.282;2023-09-12T06:45:29;21.80;77.10
71214;DHT22;58958;43.696;4.282;2023-09-12T06:47:58;22.00;76.50
71214;DHT22;58958;43.696;4.282;2023-09-12T06:50:23;22.00;76.60
71214;DHT22;58958;43.696;4.282;2023-09-12T06:52:49;21.90;76.90
71214;DHT22;58958;43.696;4.282;2023-09-12T06:55:15;21.90;77.10
71214;DHT22;58958;43.696;4.282;2023-09-12T06:57:40;21.90;77.10
71214;DHT22;58958;43.696;4.282;2023-09-12T07:00:07;22.00;77.00
71214;DHT22;58958;43.696;4.282;2023-09-12T07:02:34;22.00;77.10
71214;DHT22;58958;43.696;4.282;2023-09-12T07:04:59;22.00;77.10
71214;DHT22;58958;43.696;4.282;2023-09-12T07:07:25;22.00;77.10
71214;DHT22;58958;43.696;4.282;2023-09-12T07:09:51;22.10;77.00
71214;DHT22;58958;43.696;4.282;2023-09-12T07:12:16;22.20;76.90
71214;DHT22;58958;43.696;4.282;2023-09-12T07:14:42;22.20;76.90
71214;DHT22;58958;43.696;4.282;2023-09-12T07:17:08;22.30;76.80
71214;DHT22;58958;43.696;4.282;2023-09-12T07:19:33;22.50;76.30
71214;DHT22;58958;43.696;4.282;2023-09-12T07:21:59;22.70;75.80
71214;DHT22;58958;43.696;4.282;2023-09-12T07:24:26;23.00;75.30
71214;DHT22;58958;43.696;4.282;2023-09-12T07:26:52;23.10;74.90
71214;DHT22;58958;43.696;4.282;2023-09-12T07:29:17;23.30;74.70
71214;DHT22;58958;43.696;4.282;2023-09-12T07:31:43;23.30;74.60
71214;DHT22;58958;43.696;4.282;2023-09-12T07:34:09;23.20;75.20
71214;DHT22;58958;43.696;4.282;2023-09-12T07:36:35;23.30;75.30
71214;DHT22;58958;43.696;4.282;2023-09-12T07:39:02;23.50;75.00
71214;DHT22;58958;43.696;4.282;2023-09-12T07:41:29;23.60;74.20
71214;DHT22;58958;43.696;4.282;2023-09-12T07:43:55;23.90;73.60
71214;DHT22;58958;43.696;4.282;2023-09-12T07:46:21;24.30;72.40
71214;DHT22;58958;43.696;4.282;2023-09-12T07:48:46;24.50;71.40
71214;DHT22;58958;43.696;4.282;2023-09-12T07:51:16;24.70;71.30
71214;DHT22;58958;43.696;4.282;2023-09-12T07:53:43;24.90;70.40
71214;DHT22;58958;43.696;4.282;2023-09-12T07:56:09;25.00;70.40
71214;DHT22;58958;43.696;4.282;2023-09-12T07:58:38;25.10;69.70
71214;DHT22;58958;43.696;4.282;2023-09-12T08:01:07;25.70;68.00
71214;DHT22;58958;43.696;4.282;2023-09-12T08:03:37;26.00;66.30
71214;DHT22;58958;43.696;4.282;2023-09-12T08:06:04;26.00;66.60
71214;DHT22;58958;43.696;4.282;2023-09-12T08:08:30;26.70;63.80
71214;DHT22;58958;43.696;4.282;2023-09-12T08:10:56;26.80;63.80
71214;DHT22;58958;43.696;4.282;2023-09-12T08:13:22;26.70;63.60
71214;DHT22;58958;43.696;4.282;2023-09-12T08:15:48;26.20;64.60
71214;DHT22;58958;43.696;4.282;2023-09-12T08:18:14;25.80;66.50
71214;DHT22;58958;43.696;4.282;2023-09-12T08:20:40;26.00;65.90
71214;DHT22;58958;43.696;4.282;2023-09-12T08:23:06;26.00;66.30
71214;DHT22;58958;43.696;4.282;2023-09-12T08:25:32;26.00;66.00
71214;DHT22;58958;43.696;4.282;2023-09-12T08:27:58;25.90;65.90
71214;DHT22;58958;43.696;4.282;2023-09-12T08:30:23;26.00;66.60
71214;DHT22;58958;43.696;4.282;2023-09-12T08:32:50;27.00;64.20
71214;DHT22;58958;43.696;4.282;2023-09-12T08:35:16;27.70;61.30
71214;DHT22;58958;43.696;4.282;2023-09-12T08:37:42;27.40;62.00
71214;DHT22;58958;43.696;4.282;2023-09-12T08:40:19;26.90;63.00
71214;DHT22;58958;43.696;4.282;2023-09-12T08:42:46;26.70;63.80
71214;DHT22;58958;43.696;4.282;2023-09-12T08:45:14;26.40;65.10
71214;DHT22;58958;43.696;4.282;2023-09-12T08:47:45;26.40;64.70
71214;DHT22;58958;43.696;4.282;2023-09-12T08:50:13;26.40;64.20
71214;DHT22;58958;43.696;4.282;2023-09-12T08:52:42;26.70;64.40
71214;DHT22;58958;43.696;4.282;2023-09-12T08:55:09;26.90;63.30
71214;DHT22;58958;43.696;4.282;2023-09-12T08:57:40;26.60;63.60
71214;DHT22;58958;43.696;4.282;2023-09-12T09:00:06;26.20;64.90
71214;DHT22;58958;43.696;4.282;2023-09-12T09:02:41;26.10;64.90
71214;DHT22;58958;43.696;4.282;2023-09-12T09:05:08;26.30;64.00
71214;DHT22;58958;43.696;4.282;2023-09-12T09:07:41;27.40;62.00
71214;DHT22;58958;43.696;4.282;2023-09-12T09:10:13;27.60;60.50
71214;DHT22;58958;43.696;4.282;2023-09-12T09:12:42;27.80;61.00
71214;DHT22;58958;43.696;4.282;2023-09-12T09:15:26;27.70;61.20
71214;DHT22;58958;43.696;4.282;2023-09-12T09:18:02;28.10;60.00
71214;DHT22;58958;43.696;4.282;2023-09-12T09:20:30;27.70;60.80
71214;DHT22;58958;43.696;4.282;2023-09-12T09:23:10;27.60;61.00
71214;DHT22;58958;43.696;4.282;2023-09-12T09:25:39;28.50;60.20
71214;DHT22;58958;43.696;4.282;2023-09-12T09:28:16;30.60;56.60
71214;DHT22;58958;43.696;4.282;2023-09-12T09:30:44;29.80;55.70
71214;DHT22;58958;43.696;4.282;2023-09-12T09:33:11;29.70;56.60
71214;DHT22;58958;43.696;4.282;2023-09-12T09:35:37;30.80;55.20
71214;DHT22;58958;43.696;4.282;2023-09-12T09:38:08;30.80;54.40
71214;DHT22;58958;43.696;4.282;2023-09-12T09:40:34;29.90;56.00
71214;DHT22;58958;43.696;4.282;2023-09-12T09:43:02;29.10;57.40
71214;DHT22;58958;43.696;4.282;2023-09-12T09:45:29;28.80;59.50
71214;DHT22;58958;43.696;4.282;2023-09-12T09:48:04;29.00;59.00
71214;DHT22;58958;43.696;4.282;2023-09-12T09:50:34;28.70;58.60
71214;DHT22;58958;43.696;4.282;2023-09-12T09:53:02;28.50;60.50
71214;DHT22;58958;43.696;4.282;2023-09-12T09:55:30;29.40;58.40
71214;DHT22;58958;43.696;4.282;2023-09-12T09:57:56;29.10;58.60
71214;DHT22;58958;43.696;4.282;2023-09-12T10:00:22;28.80;57.40
71214;DHT22;58958;43.696;4.282;2023-09-12T10:02:50;29.10;56.70
71214;DHT22;58958;43.696;4.282;2023-09-12T10:05:17;29.40;55.70
71214;DHT22;58958;43.696;4.282;2023-09-12T10:07:48;30.70;53.80
71214;DHT22;58958;43.696;4.282;2023-09-12T10:10:18;32.80;49.30
71214;DHT22;58958;43.696;4.282;2023-09-12T10:15:20;33.60;46.80
71214;DHT22;58958;43.696;4.282;2023-09-12T10:18:07;34.10;46.60
71214;DHT22;58958;43.696;4.282;2023-09-12T10:20:38;35.40;44.40
71214;DHT22;58958;43.696;4.282;2023-09-12T10:23:12;34.10;45.30
71214;DHT22;58958;43.696;4.282;2023-09-12T10:25:40;33.80;45.80
71214;DHT22;58958;43.696;4.282;2023-09-12T10:28:09;33.30;46.50
71214;DHT22;58958;43.696;4.282;2023-09-12T10:30:35;31.30;51.10
71214;DHT22;58958;43.696;4.282;2023-09-12T10:33:05;30.70;52.20
71214;DHT22;58958;43.696;4.282;2023-09-12T10:35:31;29.40;53.90
71214;DHT22;58958;43.696;4.282;2023-09-12T10:38:02;29.10;55.30
71214;DHT22;58958;43.696;4.282;2023-09-12T10:40:30;29.90;55.40
71214;DHT22;58958;43.696;4.282;2023-09-12T10:42:57;30.60;52.60
71214;DHT22;58958;43.696;4.282;2023-09-12T10:45:24;31.10;53.00
71214;DHT22;58958;43.696;4.282;2023-09-12T10:47:49;33.20;48.80
71214;DHT22;58958;43.696;4.282;2023-09-12T10:50:15;33.10;47.70
71214;DHT22;58958;43.696;4.282;2023-09-12T10:52:42;32.90;47.20
71214;DHT22;58958;43.696;4.282;2023-09-12T10:55:16;30.40;53.10
71214;DHT22;58958;43.696;4.282;2023-09-12T10:58:08;29.20;55.90
71214;DHT22;58958;43.696;4.282;2023-09-12T11:00:34;28.80;57.40
71214;DHT22;58958;43.696;4.282;2023-09-12T11:03:35;28.80;57.70
71214;DHT22;58958;43.696;4.282;2023-09-12T11:05:54;28.70;57.60
71214;DHT22;58958;43.696;4.282;2023-09-12T11:08:27;28.80;57.90
71214;DHT22;58958;43.696;4.282;2023-09-12T11:11:16;28.60;57.90
71214;DHT22;58958;43.696;4.282;2023-09-12T11:13:43;28.60;57.20
71214;DHT22;58958;43.696;4.282;2023-09-12T11:16:13;29.10;57.20
71214;DHT22;58958;43.696;4.282;2023-09-12T11:21:36;30.10;55.70
71214;DHT22;58958;43.696;4.282;2023-09-12T11:24:02;31.90;51.30
71214;DHT22;58958;43.696;4.282;2023-09-12T11:26:29;32.30;50.10
71214;DHT22;58958;43.696;4.282;2023-09-12T11:28:55;31.30;51.40
71214;DHT22;58958;43.696;4.282;2023-09-12T11:31:27;30.40;54.00
71214;DHT22;58958;43.696;4.282;2023-09-12T11:33:53;30.00;52.40
71214;DHT22;58958;43.696;4.282;2023-09-12T11:36:55;30.00;52.70
71214;DHT22;58958;43.696;4.282;2023-09-12T11:39:29;30.10;50.70
71214;DHT22;58958;43.696;4.282;2023-09-12T11:41:57;29.90;51.80
71214;DHT22;58958;43.696;4.282;2023-09-12T11:44:23;30.20;52.50
71214;DHT22;58958;43.696;4.282;2023-09-12T11:46:49;30.90;51.90
71214;DHT22;58958;43.696;4.282;2023-09-12T11:49:16;31.20;50.40
71214;DHT22;58958;43.696;4.282;2023-09-12T11:51:53;31.60;50.70
71214;DHT22;58958;43.696;4.282;2023-09-12T11:54:21;32.10;48.40
71214;DHT22;58958;43.696;4.282;2023-09-12T11:56:50;31.30;49.70
71214;DHT22;58958;43.696;4.282;2023-09-12T11:59:25;30.70;50.90
71214;DHT22;58958;43.696;4.282;2023-09-12T12:01:52;30.90;50.60
71214;DHT22;58958;43.696;4.282;2023-09-12T12:04:24;31.30;51.60
71214;DHT22;58958;43.696;4.282;2023-09-12T12:07:00;31.10;51.00
71214;DHT22;58958;43.696;4.282;2023-09-12T12:09:27;31.90;49.70
71214;DHT22;58958;43.696;4.282;2023-09-12T12:11:53;32.80;48.00
71214;DHT22;58958;43.696;4.282;2023-09-12T12:14:18;32.40;46.80
71214;DHT22;58958;43.696;4.282;2023-09-12T12:16:46;31.40;48.40
71214;DHT22;58958;43.696;4.282;2023-09-12T12:19:13;31.20;50.00
71214;DHT22;58958;43.696;4.282;2023-09-12T12:21:40;31.70;48.90
71214;DHT22;58958;43.696;4.282;2023-09-12T12:24:09;31.60;48.80
71214;DHT22;58958;43.696;4.282;2023-09-12T12:26:35;31.10;50.00
71214;DHT22;58958;43.696;4.282;2023-09-12T12:29:01;30.60;50.80
71214;DHT22;58958;43.696;4.282;2023-09-12T12:31:27;30.40;51.50
71214;DHT22;58958;43.696;4.282;2023-09-12T12:33:54;30.10;52.80
71214;DHT22;58958;43.696;4.282;2023-09-12T12:36:20;29.80;54.10
71214;DHT22;58958;43.696;4.282;2023-09-12T12:38:48;29.40;54.10
71214;DHT22;58958;43.696;4.282;2023-09-12T12:41:15;29.50;53.80
71214;DHT22;58958;43.696;4.282;2023-09-12T12:43:42;29.80;53.50
71214;DHT22;58958;43.696;4.282;2023-09-12T12:46:12;30.10;53.40
71214;DHT22;58958;43.696;4.282;2023-09-12T12:48:38;30.10;53.40
71214;DHT22;58958;43.696;4.282;2023-09-12T12:53:48;30.00;54.20
71214;DHT22;58958;43.696;4.282;2023-09-12T12:56:17;29.60;55.10
71214;DHT22;58958;43.696;4.282;2023-09-12T12:58:51;29.30;56.10
71214;DHT22;58958;43.696;4.282;2023-09-12T13:01:17;29.10;57.10
71214;DHT22;58958;43.696;4.282;2023-09-12T13:03:44;29.40;56.50
71214;DHT22;58958;43.696;4.282;2023-09-12T13:06:11;29.30;56.10
71214;DHT22;58958;43.696;4.282;2023-09-12T13:08:41;29.30;56.30
71214;DHT22;58958;43.696;4.282;2023-09-12T13:11:08;28.90;57.30
71214;DHT22;58958;43.696;4.282;2023-09-12T13:13:35;28.60;57.20
71214;DHT22;58958;43.696;4.282;2023-09-12T13:16:02;28.60;57.60
71214;DHT22;58958;43.696;4.282;2023-09-12T13:18:33;28.70;57.90
71214;DHT22;58958;43.696;4.282;2023-09-12T13:20:59;28.50;58.50
71214;DHT22;58958;43.696;4.282;2023-09-12T13:23:25;28.40;58.70
71214;DHT22;58958;43.696;4.282;2023-09-12T13:25:51;28.50;59.20
71214;DHT22;58958;43.696;4.282;2023-09-12T13:28:17;28.60;58.70
71214;DHT22;58958;43.696;4.282;2023-09-12T13:30:43;28.80;58.10
71214;DHT22;58958;43.696;4.282;2023-09-12T13:33:13;28.60;58.30
71214;DHT22;58958;43.696;4.282;2023-09-12T13:35:41;28.70;58.30
71214;DHT22;58958;43.696;4.282;2023-09-12T13:38:07;28.50;58.20
71214;DHT22;58958;43.696;4.282;2023-09-12T13:40:38;28.40;58.40
71214;DHT22;58958;43.696;4.282;2023-09-12T13:43:05;28.40;58.70
71214;DHT22;58958;43.696;4.282;2023-09-12T13:45:31;28.30;58.80
71214;DHT22;58958;43.696;4.282;2023-09-12T13:47:58;28.50;57.90
71214;DHT22;58958;43.696;4.282;2023-09-12T13:50:24;28.60;57.90
71214;DHT22;58958;43.696;4.282;2023-09-12T13:52:53;28.50;59.10
71214;DHT22;58958;43.696;4.282;2023-09-12T13:55:19;28.30;60.10
71214;DHT22;58958;43.696;4.282;2023-09-12T13:57:48;28.10;61.10
71214;DHT22;58958;43.696;4.282;2023-09-12T14:00:14;27.90;62.50
71214;DHT22;58958;43.696;4.282;2023-09-12T14:02:40;27.70;63.10
71214;DHT22;58958;43.696;4.282;2023-09-12T14:05:06;27.90;62.60
71214;DHT22;58958;43.696;4.282;2023-09-12T14:07:31;28.00;62.30
71214;DHT22;58958;43.696;4.282;2023-09-12T14:09:57;28.00;62.30
71214;DHT22;58958;43.696;4.282;2023-09-12T14:12:23;28.10;61.90
71214;DHT22;58958;43.696;4.282;2023-09-12T14:14:49;28.10;62.00
71214;DHT22;58958;43.696;4.282;2023-09-12T14:17:15;28.00;62.80
71214;DHT22;58958;43.696;4.282;2023-09-12T14:19:41;28.10;62.50
71214;DHT22;58958;43.696;4.282;2023-09-12T14:22:06;28.00;62.90
71214;DHT22;58958;43.696;4.282;2023-09-12T14:24:32;28.30;62.50
71214;DHT22;58958;43.696;4.282;2023-09-12T14:26:58;28.30;62.10
71214;DHT22;58958;43.696;4.282;2023-09-12T14:29:24;28.30;62.20
71214;DHT22;58958;43.696;4.282;2023-09-12T14:31:52;28.20;62.10
71214;DHT22;58958;43.696;4.282;2023-09-12T14:34:26;28.30;62.30
71214;DHT22;58958;43.696;4.282;2023-09-12T14:36:57;28.90;60.40
71214;DHT22;58958;43.696;4.282;2023-09-12T14:39:24;28.40;61.40
71214;DHT22;58958;43.696;4.282;2023-09-12T14:41:50;28.70;59.90
71214;DHT22;58958;43.696;4.282;2023-09-12T14:44:23;28.90;58.80
71214;DHT22;58958;43.696;4.282;2023-09-12T14:46:49;28.90;59.20
71214;DHT22;58958;43.696;4.282;2023-09-12T14:49:15;29.20;58.80
71214;DHT22;58958;43.696;4.282;2023-09-12T14:51:41;29.10;56.40
71214;DHT22;58958;43.696;4.282;2023-09-12T14:54:07;28.80;58.00
71214;DHT22;58958;43.696;4.282;2023-09-12T14:56:34;28.80;57.50
71214;DHT22;58958;43.696;4.282;2023-09-12T14:59:00;28.80;56.20
71214;DHT22;58958;43.696;4.282;2023-09-12T15:01:27;28.50;56.50
71214;DHT22;58958;43.696;4.282;2023-09-12T15:03:53;28.70;57.10
71214;DHT22;58958;43.696;4.282;2023-09-12T15:06:19;29.60;55.40
71214;DHT22;58958;43.696;4.282;2023-09-12T15:08:45;30.80;53.50
71214;DHT22;58958;43.696;4.282;2023-09-12T15:11:10;30.90;52.70
71214;DHT22;58958;43.696;4.282;2023-09-12T15:13:36;31.20;51.20
71214;DHT22;58958;43.696;4.282;2023-09-12T15:16:03;30.40;53.00
71214;DHT22;58958;43.696;4.282;2023-09-12T15:18:29;29.10;57.80
71214;DHT22;58958;43.696;4.282;2023-09-12T15:20:55;29.00;58.20
71214;DHT22;58958;43.696;4.282;2023-09-12T15:23:21;28.70;58.10
71214;DHT22;58958;43.696;4.282;2023-09-12T15:25:48;28.70;57.90
71214;DHT22;58958;43.696;4.282;2023-09-12T15:28:14;28.50;58.40
71214;DHT22;58958;43.696;4.282;2023-09-12T15:30:40;28.40;58.30
71214;DHT22;58958;43.696;4.282;2023-09-12T15:33:06;27.70;60.60
71214;DHT22;58958;43.696;4.282;2023-09-12T15:35:31;27.70;60.90
71214;DHT22;58958;43.696;4.282;2023-09-12T15:37:57;27.40;62.00
71214;DHT22;58958;43.696;4.282;2023-09-12T15:40:23;27.30;63.50
71214;DHT22;58958;43.696;4.282;2023-09-12T15:42:49;27.10;65.00
71214;DHT22;58958;43.696;4.282;2023-09-12T15:45:15;26.90;65.90